Glasgow, Montana
Current Conditions -  °F | °C
As of 10:53 PM on Wednesday 28 Jan 2015 (Local Time) from KGGW Reporting Station
Clear Clear  
Wind Chill: 19°   Ceiling: Unl
Heat Index: 28°   Visibility: 9mi
Dew Point: 25°   Wind: 9mph
Humidity: 88%   Direction: 320°NW
Pressure: 30.38"   Gusts: NA
Location:  48.2°N, 106.64°W
Report Text: KGGW 290553Z AUTO 32008KT 9SM CLR M02/M04 A3038 RMK AO2 SLP318 T10221039 10017 21022 51017
Loading
Personal Weather Stations






























Interactive Weather Map New forecast layout! Learn more

10-Day Weather Forecast

Advertisements
Track Severe Weather on mobile